Time;durP1;ratioP1;P1;durP2;ratioP2;P2;SDS_P1;SDS_P2;PMS_P1;PMS_P2;Temp;Humidity;BMP_temperature;BMP_pressure;BME280_temperature;BME280_humidity;BME280_pressure;Samples;Min_cycle;Max_cycle;Signal;HPM_P1;HPM_P2
2023/04/29 00:00:04;;;;;;;23.13;11.20;;;12.70;99.90;;;;;;5023705;28;20033;-58
2023/04/29 00:02:30;;;;;;;26.20;11.00;;;12.70;99.90;;;;;;5025582;28;20521;-58
2023/04/29 00:04:55;;;;;;;20.08;10.20;;;12.70;99.90;;;;;;5029801;28;20108;-58
2023/04/29 00:07:21;;;;;;;24.85;10.95;;;12.70;99.90;;;;;;5030617;28;20108;-59
2023/04/29 00:09:46;;;;;;;29.13;10.95;;;12.60;99.90;;;;;;5032087;28;20041;-58
2023/04/29 00:12:12;;;;;;;19.95;10.88;;;12.60;99.90;;;;;;5032347;28;20125;-57
2023/04/29 00:14:37;;;;;;;24.58;10.93;;;12.60;99.90;;;;;;5030123;28;20028;-59
2023/04/29 00:17:03;;;;;;;26.63;12.48;;;12.60;99.90;;;;;;5034076;28;20032;-57
2023/04/29 00:19:28;;;;;;;27.73;12.45;;;12.60;99.90;;;;;;5029584;28;20029;-59
2023/04/29 00:21:54;;;;;;;23.65;11.20;;;12.60;99.90;;;;;;5025251;28;20047;-59
2023/04/29 00:24:20;;;;;;;24.55;10.85;;;12.50;99.90;;;;;;5028601;28;20130;-59
2023/04/29 00:26:45;;;;;;;30.63;11.40;;;12.50;99.90;;;;;;5030407;28;20045;-60
2023/04/29 00:29:11;;;;;;;27.90;13.88;;;12.50;99.90;;;;;;5026674;28;20087;-59
2023/04/29 00:31:36;;;;;;;23.85;10.95;;;12.50;99.90;;;;;;5026024;28;20033;-58
2023/04/29 00:34:02;;;;;;;28.40;12.55;;;12.50;99.90;;;;;;5027138;28;20034;-59
2023/04/29 00:36:28;;;;;;;29.95;13.77;;;12.40;99.90;;;;;;5026162;28;20029;-60
2023/04/29 00:38:53;;;;;;;28.65;13.15;;;12.40;99.90;;;;;;5028073;28;20479;-58
2023/04/29 00:41:20;;;;;;;29.48;13.65;;;12.40;99.90;;;;;;5029910;28;20036;-59
2023/04/29 00:43:45;;;;;;;26.02;12.05;;;12.40;99.90;;;;;;5029603;28;20083;-59
2023/04/29 00:46:11;;;;;;;22.10;11.02;;;12.40;99.90;;;;;;5025101;28;20033;-60
2023/04/29 00:48:37;;;;;;;25.75;12.13;;;12.40;99.90;;;;;;5021041;28;20041;-60
2023/04/29 00:51:04;;;;;;;29.33;12.63;;;12.40;99.90;;;;;;5027786;28;20025;-60
2023/04/29 00:53:30;;;;;;;32.42;13.50;;;12.40;99.90;;;;;;5030224;28;20021;-58
2023/04/29 00:55:56;;;;;;;32.88;13.68;;;12.40;99.90;;;;;;5030342;28;20041;-59
2023/04/29 00:58:22;;;;;;;27.88;13.13;;;12.40;99.90;;;;;;5030021;28;20029;-57
2023/04/29 01:00:48;;;;;;;26.13;12.38;;;12.30;99.90;;;;;;5024769;28;20029;-60
2023/04/29 01:03:14;;;;;;;30.20;13.90;;;12.40;99.90;;;;;;5033931;28;20152;-60
2023/04/29 01:05:40;;;;;;;27.50;12.30;;;12.30;99.90;;;;;;5028950;28;20037;-58
2023/04/29 01:08:25;;;;;;;25.77;11.90;;;12.30;99.90;;;;;;5028880;28;20089;-59
2023/04/29 01:11:06;;;;;;;29.85;13.57;;;12.30;99.90;;;;;;5027478;28;20071;-58
2023/04/29 01:13:48;;;;;;;29.13;12.98;;;12.30;99.90;;;;;;5027615;28;20037;-58
2023/04/29 01:16:36;;;;;;;30.67;12.48;;;12.30;99.90;;;;;;5029369;28;20029;-55
2023/04/29 01:19:14;;;;;;;27.48;12.23;;;12.30;99.90;;;;;;5026110;28;20044;-57
2023/04/29 01:21:50;;;;;;;28.40;12.57;;;12.30;99.90;;;;;;5023394;28;20417;-56
2023/04/29 01:24:16;;;;;;;31.10;14.32;;;12.30;99.90;;;;;;5026823;28;20034;-60
2023/04/29 01:26:53;;;;;;;28.00;11.90;;;12.30;99.90;;;;;;5026849;28;20042;-60
2023/04/29 01:29:33;;;;;;;27.05;13.55;;;12.30;99.90;;;;;;5030936;28;20075;-57
2023/04/29 01:32:08;;;;;;;32.13;13.68;;;12.20;99.90;;;;;;5024938;28;20703;-60
2023/04/29 01:34:46;;;;;;;30.92;13.15;;;12.20;99.90;;;;;;5025654;28;20559;-59
2023/04/29 01:37:18;;;;;;;29.77;12.23;;;12.20;99.90;;;;;;5026325;28;20025;-61
2023/04/29 01:40:08;;;;;;;31.25;12.88;;;12.20;99.90;;;;;;5024512;28;20025;-59
2023/04/29 01:42:37;;;;;;;28.67;12.82;;;12.20;99.90;;;;;;5026666;28;20037;-60
2023/04/29 01:45:07;;;;;;;27.73;12.82;;;12.20;99.90;;;;;;5029502;28;20091;-60
2023/04/29 01:47:35;;;;;;;39.38;15.45;;;12.20;99.90;;;;;;5020339;28;20095;-60
2023/04/29 01:50:01;;;;;;;34.75;16.73;;;12.10;99.90;;;;;;5026586;28;20637;-60
2023/04/29 01:52:27;;;;;;;35.95;17.25;;;12.10;99.90;;;;;;5021298;28;20056;-60
2023/04/29 01:54:53;;;;;;;39.95;16.92;;;12.10;99.90;;;;;;5026216;28;20029;-60
2023/04/29 01:57:18;;;;;;;39.30;17.83;;;12.00;99.90;;;;;;5028854;28;20028;-60
2023/04/29 01:59:44;;;;;;;41.80;18.02;;;12.00;99.90;;;;;;5032406;28;20032;-60
2023/04/29 02:02:09;;;;;;;43.80;18.27;;;12.00;99.90;;;;;;5022803;28;20034;-60
2023/04/29 02:04:35;;;;;;;46.50;20.92;;;12.00;99.90;;;;;;5028767;28;20030;-59
2023/04/29 02:07:00;;;;;;;48.38;21.98;;;12.00;99.90;;;;;;5029778;28;20021;-60
2023/04/29 02:09:26;;;;;;;49.13;22.05;;;11.90;99.90;;;;;;5027584;28;20506;-59
2023/04/29 02:11:52;;;;;;;47.35;22.42;;;11.90;99.90;;;;;;5030481;28;20033;-60
2023/04/29 02:14:17;;;;;;;51.78;22.00;;;11.80;99.90;;;;;;5026707;28;20030;-59
2023/04/29 02:16:44;;;;;;;53.90;22.65;;;11.80;99.90;;;;;;5031721;28;20040;-60
2023/04/29 02:19:10;;;;;;;52.78;22.75;;;11.80;99.90;;;;;;5031641;28;20512;-59
2023/04/29 02:21:35;;;;;;;57.50;22.90;;;11.80;99.90;;;;;;5031550;28;20017;-60
2023/04/29 02:24:01;;;;;;;59.42;23.95;;;11.80;99.90;;;;;;5026997;28;20022;-59
2023/04/29 02:26:27;;;;;;;49.75;23.23;;;11.70;99.90;;;;;;5028789;28;20017;-60
2023/04/29 02:28:52;;;;;;;59.38;24.90;;;11.70;99.90;;;;;;5038307;28;20037;-59
2023/04/29 02:31:18;;;;;;;57.03;23.08;;;11.70;99.90;;;;;;5026165;28;20030;-59
2023/04/29 02:33:43;;;;;;;56.95;23.50;;;11.70;99.90;;;;;;5027374;28;20044;-59
2023/04/29 02:36:09;;;;;;;58.67;23.80;;;11.70;99.90;;;;;;5028389;28;20028;-60
2023/04/29 02:38:35;;;;;;;59.78;24.17;;;11.70;99.90;;;;;;5031739;28;20021;-60
2023/04/29 02:41:00;;;;;;;57.45;24.23;;;11.70;99.90;;;;;;5028940;28;20101;-60
2023/04/29 02:43:29;;;;;;;56.63;22.85;;;11.70;99.90;;;;;;5029414;28;20057;-60
2023/04/29 02:45:55;;;;;;;56.22;23.88;;;11.70;99.90;;;;;;5031760;28;20052;-60
2023/04/29 02:48:20;;;;;;;60.58;24.35;;;11.60;99.90;;;;;;5031118;28;20081;-59
2023/04/29 02:50:46;;;;;;;59.33;24.52;;;11.70;99.90;;;;;;5032171;28;20049;-60
2023/04/29 02:53:12;;;;;;;58.45;25.27;;;11.70;99.90;;;;;;5030147;28;20041;-58
2023/04/29 02:55:37;;;;;;;60.45;25.88;;;11.70;99.90;;;;;;5029141;28;20029;-59
2023/04/29 02:58:03;;;;;;;54.50;24.95;;;11.60;99.90;;;;;;5031091;28;20113;-58
2023/04/29 03:00:28;;;;;;;54.92;24.42;;;11.60;99.90;;;;;;5028892;28;20030;-59
2023/04/29 03:02:54;;;;;;;63.92;24.63;;;11.70;99.90;;;;;;5026781;28;20021;-60
2023/04/29 03:05:19;;;;;;;58.30;24.80;;;11.70;99.90;;;;;;5030925;28;20465;-56
2023/04/29 03:07:45;;;;;;;68.10;27.05;;;11.60;99.90;;;;;;5031526;28;20475;-60
2023/04/29 03:10:11;;;;;;;60.00;26.63;;;11.60;99.90;;;;;;5029613;28;20029;-58
2023/04/29 03:12:38;;;;;;;67.90;28.88;;;11.60;99.90;;;;;;5030315;28;20489;-57
2023/04/29 03:15:05;;;;;;;73.80;28.58;;;11.50;99.90;;;;;;5032223;28;20021;-61
2023/04/29 03:17:31;;;;;;;80.47;29.38;;;11.50;99.90;;;;;;5026698;28;20021;-60
2023/04/29 03:19:57;;;;;;;75.53;29.00;;;11.40;99.90;;;;;;5031663;28;20012;-59
2023/04/29 03:22:22;;;;;;;92.45;31.33;;;11.40;99.90;;;;;;5027038;28;20505;-59
2023/04/29 03:24:48;;;;;;;77.55;29.70;;;11.40;99.90;;;;;;5032492;28;20025;-60
2023/04/29 03:27:13;;;;;;;90.07;32.70;;;11.30;99.90;;;;;;5029359;28;20033;-59
2023/04/29 03:29:39;;;;;;;90.38;33.75;;;11.30;99.90;;;;;;5035244;28;20021;-59
2023/04/29 03:32:04;;;;;;;87.30;33.30;;;11.30;99.90;;;;;;5024831;28;20026;-60
2023/04/29 03:34:30;;;;;;;92.75;33.58;;;11.20;99.90;;;;;;5031080;28;20053;-57
2023/04/29 03:36:56;;;;;;;99.13;34.60;;;11.20;99.90;;;;;;5028741;28;20079;-59
2023/04/29 03:39:22;;;;;;;106.15;36.67;;;11.10;99.90;;;;;;5030877;28;20568;-60
2023/04/29 03:41:47;;;;;;;115.72;37.35;;;11.10;99.90;;;;;;5029923;28;20017;-59
2023/04/29 03:44:13;;;;;;;117.25;39.00;;;11.10;99.90;;;;;;5025994;28;20037;-57
2023/04/29 03:46:38;;;;;;;122.22;40.28;;;11.00;99.90;;;;;;5029211;28;20397;-60
2023/04/29 03:49:04;;;;;;;139.25;42.70;;;11.00;99.90;;;;;;5030946;28;20099;-59
2023/04/29 03:51:30;;;;;;;139.77;46.58;;;10.90;99.90;;;;;;5031728;28;20116;-59
2023/04/29 03:53:56;;;;;;;130.30;44.88;;;10.90;99.90;;;;;;5031881;28;20025;-59
2023/04/29 03:56:24;;;;;;;126.18;44.17;;;10.80;99.90;;;;;;5032135;28;20032;-62
2023/04/29 03:58:50;;;;;;;127.53;44.22;;;10.80;99.90;;;;;;5032833;28;20519;-60
2023/04/29 04:01:16;;;;;;;137.00;42.20;;;10.80;99.90;;;;;;5031572;28;20034;-59
2023/04/29 04:03:42;;;;;;;133.52;39.22;;;10.80;99.90;;;;;;5032143;28;20036;-61
2023/04/29 04:06:07;;;;;;;128.35;39.53;;;10.80;99.90;;;;;;5030870;28;20033;-59
2023/04/29 04:08:33;;;;;;;129.52;37.20;;;10.70;99.90;;;;;;5029045;28;20030;-60
2023/04/29 04:11:01;;;;;;;119.03;35.53;;;10.70;99.90;;;;;;5048636;28;20037;-59
2023/04/29 04:13:28;;;;;;;121.28;34.80;;;10.60;99.90;;;;;;5029618;28;20041;-59
2023/04/29 04:15:53;;;;;;;130.18;37.08;;;10.50;99.90;;;;;;5026068;28;20037;-60
2023/04/29 04:18:19;;;;;;;131.43;34.58;;;10.40;99.90;;;;;;5031139;28;20022;-59
2023/04/29 04:20:44;;;;;;;126.82;36.08;;;10.40;99.90;;;;;;5028363;28;20036;-59
2023/04/29 04:23:10;;;;;;;135.73;36.03;;;10.40;99.90;;;;;;5029658;28;20032;-59
2023/04/29 04:25:35;;;;;;;126.13;34.42;;;10.40;99.90;;;;;;5031125;28;20515;-60
2023/04/29 04:28:01;;;;;;;123.05;32.88;;;10.40;99.90;;;;;;5027035;28;20597;-59
2023/04/29 04:30:27;;;;;;;111.25;33.58;;;10.30;99.90;;;;;;5028710;28;20469;-59
2023/04/29 04:32:52;;;;;;;118.55;35.15;;;10.30;99.90;;;;;;5025388;28;20119;-59
2023/04/29 04:35:17;;;;;;;124.10;34.47;;;10.30;99.90;;;;;;5028022;28;20098;-59
2023/04/29 04:37:43;;;;;;;119.95;35.03;;;10.30;99.90;;;;;;5033212;28;20029;-59
2023/04/29 04:40:10;;;;;;;118.05;36.97;;;10.30;99.90;;;;;;5028258;28;20033;-59
2023/04/29 04:42:36;;;;;;;118.72;36.38;;;10.30;99.90;;;;;;5029161;28;20033;-60
2023/04/29 04:45:02;;;;;;;114.00;35.85;;;10.30;99.90;;;;;;5030702;28;20041;-58
2023/04/29 04:47:28;;;;;;;120.40;36.25;;;10.30;99.90;;;;;;5033304;28;20030;-59
2023/04/29 04:49:53;;;;;;;124.50;35.92;;;10.30;99.90;;;;;;5030143;28;20033;-59
2023/04/29 04:52:20;;;;;;;111.82;34.80;;;10.30;99.90;;;;;;5028260;28;20025;-59
2023/04/29 04:54:46;;;;;;;130.07;35.33;;;10.20;99.90;;;;;;5029662;28;20025;-59
2023/04/29 04:57:12;;;;;;;125.68;37.15;;;10.20;99.90;;;;;;5027848;28;20026;-60
2023/04/29 04:59:38;;;;;;;114.15;36.08;;;10.20;99.90;;;;;;5030879;28;20446;-59
2023/04/29 05:02:03;;;;;;;113.78;33.35;;;10.20;99.90;;;;;;5028576;28;20060;-59
2023/04/29 05:04:29;;;;;;;118.57;37.00;;;10.20;99.90;;;;;;5029872;28;20029;-59
2023/04/29 05:06:54;;;;;;;116.05;34.28;;;10.20;99.90;;;;;;5028415;28;20044;-59
2023/04/29 05:09:20;;;;;;;118.00;36.63;;;10.20;99.90;;;;;;5025870;28;20493;-58
2023/04/29 05:11:45;;;;;;;116.68;34.72;;;10.20;99.90;;;;;;5028203;28;20033;-57
2023/04/29 05:14:11;;;;;;;106.70;33.50;;;10.20;99.90;;;;;;5023679;28;20051;-59
2023/04/29 05:16:37;;;;;;;107.97;31.75;;;10.20;99.90;;;;;;5027861;28;20065;-58
2023/04/29 05:19:02;;;;;;;94.93;29.80;;;10.10;99.90;;;;;;5028959;28;20029;-58
2023/04/29 05:21:28;;;;;;;94.10;28.55;;;10.20;99.90;;;;;;5033163;28;20048;-60
2023/04/29 05:23:53;;;;;;;89.38;29.55;;;10.20;99.90;;;;;;5033055;28;20033;-59
2023/04/29 05:26:20;;;;;;;80.32;29.10;;;10.10;99.90;;;;;;5033602;28;20036;-58
2023/04/29 05:28:45;;;;;;;78.78;28.45;;;10.20;99.90;;;;;;5036917;28;20067;-59
2023/04/29 05:31:11;;;;;;;82.75;25.42;;;10.20;99.90;;;;;;5024941;28;20061;-58
2023/04/29 05:33:36;;;;;;;93.10;28.92;;;10.20;99.90;;;;;;5024991;28;20033;-58
2023/04/29 05:36:02;;;;;;;80.60;28.23;;;10.10;99.90;;;;;;5027146;28;20032;-58
2023/04/29 05:38:27;;;;;;;84.82;28.15;;;10.20;99.90;;;;;;5024365;28;20033;-58
2023/04/29 05:40:55;;;;;;;68.03;25.42;;;10.10;99.90;;;;;;5028556;28;20037;-58
2023/04/29 05:43:20;;;;;;;74.80;28.63;;;10.20;99.90;;;;;;5027045;28;20059;-59
2023/04/29 05:45:46;;;;;;;85.63;27.80;;;10.20;99.90;;;;;;5027985;28;20060;-58
2023/04/29 05:48:11;;;;;;;68.82;25.17;;;10.20;99.90;;;;;;5026777;28;20033;-58
2023/04/29 05:50:37;;;;;;;66.53;23.48;;;10.20;99.90;;;;;;5031481;28;20029;-57
2023/04/29 05:53:03;;;;;;;61.20;21.77;;;10.20;99.90;;;;;;5032332;28;20037;-57
2023/04/29 05:55:29;;;;;;;53.35;19.85;;;10.30;99.90;;;;;;5033759;28;20111;-58
2023/04/29 05:57:55;;;;;;;60.55;20.70;;;10.30;99.90;;;;;;5033170;28;20048;-58
2023/04/29 06:00:21;;;;;;;48.88;19.25;;;10.20;99.90;;;;;;5030448;28;20040;-58
2023/04/29 06:02:46;;;;;;;58.92;18.27;;;10.20;99.90;;;;;;5033041;28;20037;-57
2023/04/29 06:05:12;;;;;;;57.25;18.67;;;10.20;99.90;;;;;;5033658;28;20044;-56
2023/04/29 06:07:38;;;;;;;45.03;19.25;;;10.20;99.90;;;;;;5032280;28;20528;-59
2023/04/29 06:10:04;;;;;;;45.05;18.80;;;10.30;99.90;;;;;;5033872;28;20425;-58
2023/04/29 06:12:30;;;;;;;46.65;18.52;;;10.20;99.90;;;;;;5032846;28;20018;-58
2023/04/29 06:14:55;;;;;;;44.92;17.02;;;10.30;99.90;;;;;;5035791;28;20029;-54
2023/04/29 06:17:21;;;;;;;45.78;18.42;;;10.30;99.90;;;;;;5033873;28;20397;-56
2023/04/29 06:19:46;;;;;;;44.67;18.95;;;10.30;99.90;;;;;;5031533;28;20079;-59
2023/04/29 06:22:12;;;;;;;50.58;19.83;;;10.30;99.90;;;;;;5032526;28;20416;-57
2023/04/29 06:24:37;;;;;;;50.30;18.27;;;10.30;99.90;;;;;;5034231;28;20121;-57
2023/04/29 06:27:03;;;;;;;44.47;19.17;;;10.30;99.90;;;;;;5026919;28;20026;-58
2023/04/29 06:29:29;;;;;;;48.15;19.35;;;10.40;99.90;;;;;;5027716;28;20505;-59
2023/04/29 06:31:55;;;;;;;45.80;17.02;;;10.40;99.90;;;;;;5027096;28;20646;-59
2023/04/29 06:34:21;;;;;;;46.47;18.70;;;10.40;99.90;;;;;;5033138;28;20026;-58
2023/04/29 06:36:46;;;;;;;47.35;18.48;;;10.40;99.90;;;;;;5026801;28;20405;-59
2023/04/29 06:39:12;;;;;;;55.53;18.85;;;10.40;99.90;;;;;;5029892;28;20037;-58
2023/04/29 06:41:37;;;;;;;45.63;17.50;;;10.50;99.90;;;;;;5031768;28;20033;-59
2023/04/29 06:44:03;;;;;;;41.45;17.85;;;10.50;99.90;;;;;;5031652;28;20030;-60
2023/04/29 06:46:29;;;;;;;44.60;17.35;;;10.50;99.90;;;;;;5026203;28;20219;-58
2023/04/29 06:48:54;;;;;;;46.65;18.95;;;10.50;99.90;;;;;;5030105;28;20036;-59
2023/04/29 06:51:20;;;;;;;42.92;18.42;;;10.60;99.90;;;;;;5030091;28;20071;-58
2023/04/29 06:53:47;;;;;;;40.55;17.58;;;10.60;99.90;;;;;;5029985;28;20033;-59
2023/04/29 06:56:12;;;;;;;45.33;18.67;;;10.60;99.90;;;;;;5030820;28;20504;-60
2023/04/29 06:58:38;;;;;;;43.38;18.55;;;10.60;99.90;;;;;;5028731;28;20057;-59
2023/04/29 07:01:05;;;;;;;45.75;16.92;;;10.60;99.90;;;;;;5028789;28;20631;-60
2023/04/29 07:03:31;;;;;;;45.95;18.48;;;10.70;99.90;;;;;;5031137;28;20115;-59
2023/04/29 07:05:57;;;;;;;37.08;16.35;;;10.70;99.90;;;;;;5029999;28;21527;-60
2023/04/29 07:08:22;;;;;;;41.83;17.77;;;10.70;99.90;;;;;;5029449;28;20398;-59
2023/04/29 07:10:55;;;;;;;44.78;18.17;;;10.70;99.90;;;;;;5025780;28;20117;-57
2023/04/29 07:13:21;;;;;;;44.00;17.45;;;10.70;99.90;;;;;;5034148;28;20031;-58
2023/04/29 07:15:47;;;;;;;44.80;18.08;;;10.70;99.90;;;;;;5027722;28;20037;-59
2023/04/29 07:18:12;;;;;;;33.95;16.15;;;10.80;99.90;;;;;;5030641;28;20567;-59
2023/04/29 07:20:38;;;;;;;37.80;16.10;;;10.80;99.90;;;;;;5022038;28;20485;-60
2023/04/29 07:23:04;;;;;;;36.65;16.33;;;10.80;99.90;;;;;;5028933;28;20043;-60
2023/04/29 07:25:29;;;;;;;40.08;17.40;;;10.90;99.90;;;;;;5027516;28;20026;-61
2023/04/29 07:27:55;;;;;;;44.33;17.33;;;11.00;99.90;;;;;;5030475;28;20041;-59
2023/04/29 07:30:22;;;;;;;34.53;15.00;;;11.00;99.90;;;;;;5027783;28;20044;-60
2023/04/29 07:32:47;;;;;;;38.35;16.90;;;11.10;99.90;;;;;;5031155;28;20536;-60
2023/04/29 07:35:13;;;;;;;40.90;17.75;;;11.10;99.90;;;;;;5028671;28;20113;-59
2023/04/29 07:37:38;;;;;;;39.45;16.13;;;11.10;99.90;;;;;;5032676;28;20053;-61
2023/04/29 07:40:05;;;;;;;32.95;16.10;;;11.20;99.90;;;;;;5028410;28;20036;-60
2023/04/29 07:42:30;;;;;;;36.85;15.93;;;11.20;99.90;;;;;;5027468;28;20017;-61
2023/04/29 07:44:56;;;;;;;40.53;16.42;;;11.20;99.90;;;;;;5029171;28;20034;-58
2023/04/29 07:47:21;;;;;;;49.78;17.00;;;11.20;99.90;;;;;;5024158;28;20021;-60
2023/04/29 07:49:47;;;;;;;38.42;16.02;;;11.30;99.90;;;;;;5028860;28;20070;-61
2023/04/29 07:52:12;;;;;;;36.80;16.83;;;11.40;99.90;;;;;;5023753;28;20022;-61
2023/04/29 07:54:38;;;;;;;42.95;17.92;;;11.50;99.90;;;;;;5038449;28;20378;-58
2023/04/29 07:57:04;;;;;;;34.55;15.98;;;11.50;99.90;;;;;;5029885;28;20032;-58
2023/04/29 07:59:30;;;;;;;37.00;14.98;;;11.50;99.90;;;;;;5027996;28;20032;-59
2023/04/29 08:01:56;;;;;;;35.15;15.10;;;11.50;99.90;;;;;;5023981;28;20028;-60
2023/04/29 08:04:22;;;;;;;30.85;14.57;;;11.60;99.90;;;;;;5028473;28;20033;-59
2023/04/29 08:06:48;;;;;;;37.65;14.32;;;11.50;99.90;;;;;;5025979;28;20404;-58
2023/04/29 08:09:14;;;;;;;33.50;15.05;;;11.60;99.90;;;;;;5024717;28;20576;-60
2023/04/29 08:11:40;;;;;;;33.90;14.65;;;11.60;99.90;;;;;;5024416;28;20052;-58
2023/04/29 08:14:06;;;;;;;33.65;14.77;;;11.60;99.90;;;;;;5022928;28;20041;-59
2023/04/29 08:16:32;;;;;;;29.95;13.93;;;11.60;99.90;;;;;;5026434;28;20029;-58
2023/04/29 08:18:57;;;;;;;33.75;14.88;;;11.50;99.90;;;;;;5028644;28;20026;-58
2023/04/29 08:21:23;;;;;;;29.40;14.30;;;11.50;99.90;;;;;;5025949;28;20025;-58
2023/04/29 08:23:48;;;;;;;25.38;12.23;;;11.50;99.90;;;;;;5024300;28;20030;-59
2023/04/29 08:26:14;;;;;;;28.25;13.25;;;11.40;99.90;;;;;;5029174;28;20535;-59
2023/04/29 08:28:40;;;;;;;30.17;14.07;;;11.40;99.90;;;;;;5026293;28;20034;-58
2023/04/29 08:31:06;;;;;;;29.00;12.68;;;11.40;99.90;;;;;;5004201;28;20030;-58
2023/04/29 08:33:33;;;;;;;31.63;12.40;;;11.40;99.90;;;;;;5020622;28;20113;-60
2023/04/29 08:36:00;;;;;;;26.50;11.88;;;11.30;99.90;;;;;;5021442;28;20033;-59
2023/04/29 08:38:26;;;;;;;25.95;11.77;;;11.30;99.90;;;;;;5027849;28;20053;-60
2023/04/29 08:40:52;;;;;;;23.80;11.95;;;11.40;99.90;;;;;;5024504;28;20329;-59
2023/04/29 08:43:18;;;;;;;28.60;11.80;;;11.40;99.90;;;;;;5028263;28;20496;-60
2023/04/29 08:45:45;;;;;;;27.73;12.18;;;11.50;99.90;;;;;;5026586;28;20808;-60
2023/04/29 08:48:12;;;;;;;27.95;12.52;;;11.60;99.90;;;;;;5025472;28;20025;-60
2023/04/29 08:50:40;;;;;;;26.33;12.43;;;11.60;99.90;;;;;;5026919;28;20045;-60
2023/04/29 08:53:10;;;;;;;28.80;12.38;;;11.70;99.90;;;;;;5029196;28;20029;-60
2023/04/29 08:55:40;;;;;;;25.90;12.20;;;11.80;99.90;;;;;;5028318;28;20075;-60
2023/04/29 08:58:07;;;;;;;27.33;11.65;;;12.00;99.90;;;;;;5027673;28;20123;-59
2023/04/29 09:00:34;;;;;;;25.73;11.43;;;11.90;99.90;;;;;;5024156;28;20029;-60
2023/04/29 09:03:04;;;;;;;21.65;10.73;;;11.80;99.90;;;;;;5033569;28;20484;-60
2023/04/29 09:05:30;;;;;;;24.10;11.80;;;11.90;99.90;;;;;;5024009;28;20038;-59
2023/04/29 09:07:58;;;;;;;26.15;11.32;;;11.80;99.90;;;;;;5025217;28;20064;-60
2023/04/29 09:10:25;;;;;;;21.48;10.23;;;11.70;99.90;;;;;;5024424;28;20378;-60
2023/04/29 09:12:50;;;;;;;25.00;11.60;;;11.80;99.90;;;;;;5028186;28;20033;-60
2023/04/29 09:15:16;;;;;;;25.00;11.43;;;12.00;99.90;;;;;;5026698;28;20072;-58
2023/04/29 09:17:46;;;;;;;27.40;11.80;;;12.20;99.90;;;;;;5030399;28;20025;-59
2023/04/29 09:20:21;;;;;;;23.55;12.10;;;12.30;99.90;;;;;;5024546;28;20013;-59
2023/04/29 09:22:48;;;;;;;28.95;12.05;;;12.30;99.90;;;;;;5029059;28;20026;-58
2023/04/29 09:25:14;;;;;;;22.52;11.45;;;12.30;99.90;;;;;;5030961;28;20033;-59
2023/04/29 09:27:39;;;;;;;24.65;11.68;;;12.30;99.90;;;;;;5028184;28;20040;-58
2023/04/29 09:30:06;;;;;;;20.67;10.93;;;12.20;99.90;;;;;;5025330;28;20497;-58
2023/04/29 09:32:31;;;;;;;24.05;11.98;;;12.20;99.90;;;;;;5032790;28;20009;-58
2023/04/29 09:34:57;;;;;;;26.65;11.93;;;12.30;99.90;;;;;;5032777;28;20083;-57
2023/04/29 09:37:25;;;;;;;20.27;11.77;;;12.30;99.90;;;;;;5033095;28;20440;-59
2023/04/29 09:39:50;;;;;;;25.33;12.32;;;12.20;99.90;;;;;;5030288;28;20080;-58
2023/04/29 09:42:16;;;;;;;30.45;12.88;;;12.20;99.90;;;;;;5027748;28;20025;-58
2023/04/29 09:44:43;;;;;;;26.35;12.13;;;12.20;99.90;;;;;;5026367;28;20033;-59
2023/04/29 09:47:09;;;;;;;26.15;12.93;;;12.30;99.90;;;;;;5030161;28;20028;-57
2023/04/29 09:49:38;;;;;;;27.52;13.52;;;12.40;99.90;;;;;;5026918;28;20529;-59
2023/04/29 09:52:09;;;;;;;27.38;12.15;;;12.40;99.90;;;;;;5033031;28;20041;-59
2023/04/29 09:54:37;;;;;;;30.10;12.70;;;12.40;99.90;;;;;;5032493;28;20040;-59
2023/04/29 09:57:04;;;;;;;27.20;13.65;;;12.30;99.90;;;;;;5031351;28;20346;-59
2023/04/29 09:59:32;;;;;;;28.10;13.18;;;12.30;99.90;;;;;;5029330;28;20022;-58
2023/04/29 10:01:58;;;;;;;26.77;11.77;;;12.30;99.90;;;;;;5037803;28;20396;-59
2023/04/29 10:04:25;;;;;;;25.92;11.82;;;12.30;99.90;;;;;;5030302;28;20029;-60
2023/04/29 10:06:53;;;;;;;24.27;12.25;;;12.30;99.90;;;;;;5035733;28;20029;-59
2023/04/29 10:09:20;;;;;;;26.92;12.65;;;12.30;99.90;;;;;;5031819;28;20021;-59
2023/04/29 10:11:47;;;;;;;29.05;11.93;;;12.20;99.90;;;;;;5030345;28;20032;-57
2023/04/29 10:14:18;;;;;;;27.25;11.27;;;12.20;99.90;;;;;;5028935;28;20029;-60
2023/04/29 10:16:49;;;;;;;28.75;13.02;;;12.20;99.90;;;;;;5031917;28;20599;-59
2023/04/29 10:19:23;;;;;;;32.85;15.00;;;12.20;99.90;;;;;;5030024;28;20496;-59
2023/04/29 10:21:49;;;;;;;38.67;15.45;;;12.20;99.90;;;;;;5028304;28;20022;-58
2023/04/29 10:24:18;;;;;;;44.15;18.58;;;12.10;99.90;;;;;;5025957;28;20576;-58
2023/04/29 10:26:45;;;;;;;42.95;19.45;;;12.00;99.90;;;;;;5030402;28;20448;-58
2023/04/29 10:29:13;;;;;;;42.58;19.50;;;11.90;99.90;;;;;;5032219;28;20029;-59
2023/04/29 10:31:40;;;;;;;44.33;18.25;;;11.90;99.90;;;;;;5030941;28;20032;-58
2023/04/29 10:34:05;;;;;;;44.17;19.27;;;11.90;99.90;;;;;;5030372;28;20238;-59
2023/04/29 10:36:33;;;;;;;34.38;16.27;;;11.80;99.90;;;;;;5029094;28;20104;-59
2023/04/29 10:39:03;;;;;;;38.25;17.40;;;11.80;99.90;;;;;;5030948;28;20037;-60
2023/04/29 10:41:46;;;;;;;37.63;15.00;;;11.90;99.90;;;;;;5031034;28;20013;-59
2023/04/29 10:44:13;;;;;;;34.92;15.60;;;11.80;99.90;;;;;;5032802;28;20401;-59
2023/04/29 10:46:38;;;;;;;34.78;14.07;;;11.80;99.90;;;;;;5037816;28;20051;-59
2023/04/29 10:49:06;;;;;;;25.23;13.18;;;11.80;99.90;;;;;;5035432;28;20025;-59
2023/04/29 10:51:38;;;;;;;29.42;13.18;;;11.80;99.90;;;;;;5030373;28;20037;-60
2023/04/29 10:54:14;;;;;;;28.88;14.40;;;11.80;99.90;;;;;;5035728;28;20032;-58
2023/04/29 10:56:49;;;;;;;34.30;14.77;;;11.80;99.90;;;;;;5031590;28;20037;-59
2023/04/29 10:59:32;;;;;;;32.85;14.68;;;11.70;99.90;;;;;;5030886;28;20029;-57
2023/04/29 11:01:58;;;;;;;33.95;15.38;;;11.70;99.90;;;;;;5034660;28;20032;-58
2023/04/29 11:04:23;;;;;;;39.65;16.80;;;11.70;99.90;;;;;;5032783;28;20524;-59
2023/04/29 11:06:59;;;;;;;36.17;16.67;;;11.70;99.90;;;;;;5030136;28;20036;-58
2023/04/29 11:09:30;;;;;;;36.45;15.52;;;11.70;99.90;;;;;;5030841;28;20025;-58
2023/04/29 11:12:07;;;;;;;41.28;17.85;;;11.70;99.90;;;;;;5029466;28;20167;-59
2023/04/29 11:14:48;;;;;;;36.38;17.42;;;11.70;99.90;;;;;;5031177;28;20021;-59
2023/04/29 11:17:15;;;;;;;40.38;19.23;;;11.70;99.90;;;;;;5034596;28;20109;-59
2023/04/29 11:19:51;;;;;;;38.67;17.83;;;11.70;99.90;;;;;;5032378;28;20025;-59
2023/04/29 11:22:27;;;;;;;45.10;20.45;;;11.70;99.90;;;;;;5030203;28;20084;-59
2023/04/29 11:25:06;;;;;;;40.55;18.80;;;11.60;99.90;;;;;;5031957;28;20120;-59
2023/04/29 11:27:33;;;;;;;43.33;18.80;;;11.70;99.90;;;;;;5030961;28;20036;-59
2023/04/29 11:30:00;;;;;;;43.75;18.35;;;11.60;99.90;;;;;;5025909;28;20025;-58
2023/04/29 11:32:28;;;;;;;37.20;18.48;;;11.70;99.90;;;;;;5029010;28;20033;-58
2023/04/29 11:34:53;;;;;;;49.63;20.60;;;11.60;99.90;;;;;;5026420;28;20053;-59
2023/04/29 11:37:24;;;;;;;46.25;19.98;;;11.60;99.90;;;;;;5027806;28;20068;-59
2023/04/29 11:39:51;;;;;;;48.50;21.23;;;11.70;99.90;;;;;;5025575;28;20036;-58
2023/04/29 11:42:23;;;;;;;58.28;23.38;;;11.80;99.90;;;;;;5024106;28;20534;-58
2023/04/29 11:44:53;;;;;;;59.25;24.60;;;11.70;99.90;;;;;;5029442;28;20036;-59
2023/04/29 11:47:20;;;;;;;54.08;23.88;;;11.70;99.90;;;;;;5024999;28;20076;-58
2023/04/29 11:49:46;;;;;;;82.82;32.92;;;11.70;99.90;;;;;;5025690;28;20076;-57
2023/04/29 11:52:12;;;;;;;80.75;30.98;;;11.70;99.90;;;;;;5024302;28;20033;-59
2023/04/29 11:54:39;;;;;;;90.53;35.78;;;11.70;99.90;;;;;;5027465;28;20029;-57
2023/04/29 11:57:05;;;;;;;97.07;39.45;;;11.60;99.90;;;;;;5030052;28;20021;-58
2023/04/29 11:59:34;;;;;;;106.82;41.65;;;11.60;99.90;;;;;;5027043;28;20566;-59
2023/04/29 12:01:59;;;;;;;115.45;42.25;;;11.50;99.90;;;;;;5025051;28;20452;-60
2023/04/29 12:04:26;;;;;;;115.25;45.88;;;11.60;99.90;;;;;;5026281;28;20037;-60
2023/04/29 12:06:52;;;;;;;109.15;46.05;;;11.60;99.90;;;;;;5025208;28;20061;-59
2023/04/29 12:09:18;;;;;;;121.40;47.90;;;11.60;99.90;;;;;;5028181;28;20053;-58
2023/04/29 12:11:45;;;;;;;123.05;45.88;;;11.60;99.90;;;;;;5028219;28;20044;-60
2023/04/29 12:14:13;;;;;;;124.35;46.40;;;11.70;99.90;;;;;;5020989;28;20034;-58
2023/04/29 12:16:39;;;;;;;122.93;49.33;;;11.80;99.90;;;;;;5022720;28;20029;-59
2023/04/29 12:19:05;;;;;;;134.13;52.80;;;11.80;99.90;;;;;;5026388;28;20025;-59
2023/04/29 12:21:32;;;;;;;137.73;52.63;;;11.80;99.90;;;;;;5027863;28;20024;-57
2023/04/29 12:24:00;;;;;;;148.52;54.00;;;11.70;99.90;;;;;;5029697;28;20067;-58